Time;durP1;ratioP1;P1;durP2;ratioP2;P2;SDS_P1;SDS_P2;PMS_P1;PMS_P2;Temp;Humidity;BMP_temperature;BMP_pressure;BME280_temperature;BME280_humidity;BME280_pressure;Samples;Min_cycle;Max_cycle;Signal;HPM_P1;HPM_P2
2020/12/01 00:01:13;;;;;;;19.53;14.97;;;5.40;36.50;;;;;;5070770;28;20242;-68
2020/12/01 00:03:40;;;;;;;18.03;15.63;;;5.70;37.70;;;;;;5070388;28;20544;-67
2020/12/01 00:06:05;;;;;;;17.00;15.20;;;5.40;36.70;;;;;;5070751;28;20179;-68
2020/12/01 00:08:33;;;;;;;20.40;14.80;;;5.60;37.00;;;;;;5070460;28;20917;-67
2020/12/01 00:10:58;;;;;;;20.30;17.20;;;5.50;36.80;;;;;;5070327;28;20213;-68
2020/12/01 00:13:24;;;;;;;16.30;14.60;;;5.50;37.30;;;;;;5070590;28;20821;-69
2020/12/01 00:15:49;;;;;;;19.70;14.90;;;5.30;37.70;;;;;;5070621;28;20175;-67
2020/12/01 00:18:14;;;;;;;19.77;14.87;;;5.40;38.80;;;;;;5070235;28;20178;-69
2020/12/01 00:20:40;;;;;;;21.23;16.40;;;5.30;38.70;;;;;;5070535;28;20175;-67
2020/12/01 00:23:05;;;;;;;20.40;16.47;;;5.10;39.40;;;;;;5070529;28;20192;-66
2020/12/01 00:25:31;;;;;;;19.27;16.27;;;5.00;40.40;;;;;;5070294;28;20565;-68
2020/12/01 00:27:56;;;;;;;17.57;14.47;;;4.70;42.10;;;;;;5070210;28;20168;-68
2020/12/01 00:30:25;;;;;;;17.17;15.43;;;5.00;42.50;;;;;;5070771;28;20171;-67
2020/12/01 00:32:51;;;;;;;18.83;15.83;;;5.00;42.30;;;;;;5070040;28;20187;-67
2020/12/01 00:35:20;;;;;;;19.43;16.33;;;4.90;42.80;;;;;;5070184;28;20772;-67
2020/12/01 00:37:46;;;;;;;19.60;16.00;;;4.70;44.00;;;;;;5070503;28;20418;-68
2020/12/01 00:40:13;;;;;;;17.80;15.33;;;4.80;43.50;;;;;;5071628;28;20420;-68
2020/12/01 00:42:38;;;;;;;21.67;18.17;;;4.70;45.00;;;;;;5075030;28;20286;-68
2020/12/01 00:45:06;;;;;;;17.00;15.20;;;4.70;45.60;;;;;;5074723;28;20899;-66
2020/12/01 00:47:32;;;;;;;19.13;16.03;;;4.90;45.30;;;;;;5074388;28;20180;-67
2020/12/01 00:49:58;;;;;;;22.53;16.47;;;5.10;44.60;;;;;;5074610;28;20922;-68
2020/12/01 00:52:24;;;;;;;17.57;15.67;;;5.20;44.60;;;;;;5074583;28;20429;-68
2020/12/01 00:54:49;;;;;;;19.27;16.40;;;5.30;44.80;;;;;;5074492;28;20772;-67
2020/12/01 00:57:15;;;;;;;23.43;19.07;;;5.10;44.20;;;;;;5074272;28;20171;-68
2020/12/01 00:59:40;;;;;;;18.43;15.33;;;5.00;45.50;;;;;;5074486;28;20592;-67
2020/12/01 01:02:06;;;;;;;19.23;15.90;;;5.00;46.70;;;;;;5074301;28;20195;-68
2020/12/01 01:04:32;;;;;;;20.40;17.63;;;5.30;48.20;;;;;;5074318;28;20191;-66
2020/12/01 01:06:57;;;;;;;21.70;16.47;;;5.40;47.70;;;;;;5074447;28;20201;-68
2020/12/01 01:09:23;;;;;;;22.73;15.87;;;5.30;45.40;;;;;;5074225;28;20171;-67
2020/12/01 01:11:48;;;;;;;21.07;16.40;;;5.40;45.40;;;;;;5074138;28;20278;-67
2020/12/01 01:14:14;;;;;;;18.13;15.93;;;5.40;45.00;;;;;;5074195;28;20176;-67
2020/12/01 01:16:41;;;;;;;18.10;15.90;;;5.30;44.40;;;;;;5074174;28;20659;-68
2020/12/01 01:19:07;;;;;;;21.27;16.47;;;5.20;46.00;;;;;;5073989;28;20180;-67
2020/12/01 01:21:42;;;;;;;20.77;15.70;;;5.30;47.80;;;;;;5074112;28;20970;-68
2020/12/01 01:24:09;;;;;;;20.20;16.33;;;5.40;46.20;;;;;;5073888;28;20518;-68
2020/12/01 01:26:34;;;;;;;21.77;16.63;;;5.40;45.20;;;;;;5074049;28;20492;-68
2020/12/01 01:29:00;;;;;;;20.20;15.80;;;5.40;46.80;;;;;;5073857;28;20552;-68
2020/12/01 01:31:25;;;;;;;18.97;15.97;;;5.50;45.40;;;;;;5074067;28;20187;-67
2020/12/01 01:33:51;;;;;;;20.87;15.40;;;5.40;46.60;;;;;;5074076;28;20183;-68
2020/12/01 01:36:16;;;;;;;16.57;14.83;;;5.40;45.40;;;;;;5074090;28;20725;-68
2020/12/01 01:38:42;;;;;;;19.63;17.10;;;5.60;47.90;;;;;;5073579;28;20661;-68
2020/12/01 01:41:08;;;;;;;21.10;15.53;;;5.50;45.40;;;;;;5073681;28;20284;-67
2020/12/01 01:43:34;;;;;;;19.57;15.73;;;5.50;46.30;;;;;;5073590;28;20187;-67
2020/12/01 01:45:59;;;;;;;20.83;16.77;;;5.60;45.60;;;;;;5073612;28;20417;-68
2020/12/01 01:48:26;;;;;;;19.23;14.20;;;5.50;45.40;;;;;;5073342;28;20172;-68
2020/12/01 01:51:16;;;;;;;18.73;15.57;;;5.60;45.50;;;;;;5073403;28;20194;-66
2020/12/01 01:53:46;;;;;;;17.00;14.60;;;5.50;45.70;;;;;;5072917;28;20787;-66
2020/12/01 01:56:16;;;;;;;17.33;14.83;;;5.30;45.60;;;;;;5073541;28;20830;-67
2020/12/01 01:58:44;;;;;;;19.53;15.30;;;5.50;47.30;;;;;;5073266;28;20411;-67
2020/12/01 02:01:13;;;;;;;18.67;14.30;;;5.50;45.40;;;;;;5073301;28;20430;-69
2020/12/01 02:03:44;;;;;;;19.53;14.83;;;5.40;45.30;;;;;;5073175;28;20401;-67
2020/12/01 02:06:19;;;;;;;16.97;15.00;;;5.40;45.80;;;;;;5073314;28;20907;-69
2020/12/01 02:09:03;;;;;;;14.37;12.90;;;5.60;46.50;;;;;;5073026;28;20461;-67
2020/12/01 02:11:31;;;;;;;16.57;13.87;;;5.60;45.00;;;;;;5073145;28;20430;-67
2020/12/01 02:14:05;;;;;;;18.13;16.27;;;5.80;47.20;;;;;;5072930;28;20420;-68
2020/12/01 02:16:34;;;;;;;19.00;15.73;;;5.90;46.60;;;;;;5072956;28;20444;-68
2020/12/01 02:19:00;;;;;;;16.53;13.30;;;5.90;44.20;;;;;;5072876;28;20404;-67
2020/12/01 02:21:31;;;;;;;16.07;14.47;;;5.90;45.50;;;;;;5072857;28;20815;-67
2020/12/01 02:24:00;;;;;;;16.77;14.23;;;5.50;45.30;;;;;;5072875;28;20267;-67
2020/12/01 02:26:25;;;;;;;18.90;15.43;;;5.50;45.30;;;;;;5072946;28;20401;-68
2020/12/01 02:28:51;;;;;;;15.10;13.50;;;5.60;46.00;;;;;;5072644;28;20417;-68
2020/12/01 02:31:16;;;;;;;17.33;14.50;;;5.60;44.20;;;;;;5072741;28;20191;-67
2020/12/01 02:33:42;;;;;;;16.83;15.07;;;5.40;45.50;;;;;;5072746;28;20172;-68
2020/12/01 02:36:08;;;;;;;15.83;14.23;;;5.50;46.00;;;;;;5072743;28;20266;-68
2020/12/01 02:38:33;;;;;;;17.13;14.70;;;5.60;45.60;;;;;;5072453;28;20171;-68
2020/12/01 02:40:59;;;;;;;21.10;14.80;;;5.70;45.10;;;;;;5072540;28;20191;-67
2020/12/01 02:43:24;;;;;;;15.83;14.20;;;5.70;48.00;;;;;;5072422;28;20236;-67
2020/12/01 02:45:49;;;;;;;16.60;14.80;;;5.50;45.40;;;;;;5072404;28;20697;-68
2020/12/01 02:48:15;;;;;;;16.87;14.80;;;5.50;45.60;;;;;;5072235;28;20178;-68
2020/12/01 02:50:40;;;;;;;18.93;14.90;;;5.40;47.00;;;;;;5072319;28;20246;-67
2020/12/01 02:53:06;;;;;;;16.70;13.40;;;5.40;46.40;;;;;;5072345;28;20763;-68
2020/12/01 02:55:31;;;;;;;16.40;14.33;;;5.10;48.10;;;;;;5072331;28;20163;-68
2020/12/01 02:57:57;;;;;;;15.87;13.93;;;5.00;48.20;;;;;;5071986;28;20176;-67
2020/12/01 03:00:23;;;;;;;18.10;13.53;;;5.10;48.40;;;;;;5072215;28;20190;-67
2020/12/01 03:02:48;;;;;;;18.30;14.07;;;5.30;48.50;;;;;;5072005;28;20198;-68
2020/12/01 03:05:13;;;;;;;16.43;14.67;;;5.20;48.40;;;;;;5072082;28;20199;-67
2020/12/01 03:07:39;;;;;;;16.50;14.13;;;5.30;49.20;;;;;;5070665;28;20178;-68
2020/12/01 03:10:06;;;;;;;15.33;13.13;;;5.30;47.70;;;;;;5072071;28;20708;-68
2020/12/01 03:12:32;;;;;;;15.83;13.87;;;5.40;49.20;;;;;;5071867;28;20211;-66
2020/12/01 03:14:58;;;;;;;16.60;14.10;;;5.40;48.00;;;;;;5071970;28;20406;-68
2020/12/01 03:17:24;;;;;;;16.33;14.20;;;5.40;48.60;;;;;;5071783;28;20540;-67
2020/12/01 03:19:49;;;;;;;17.07;12.77;;;5.40;48.60;;;;;;5071834;28;20429;-69
2020/12/01 03:22:15;;;;;;;15.37;13.40;;;5.50;48.50;;;;;;5071722;28;20610;-67
2020/12/01 03:24:40;;;;;;;15.33;13.00;;;5.40;48.60;;;;;;5071479;28;20215;-66
2020/12/01 03:27:06;;;;;;;15.87;13.90;;;5.60;49.30;;;;;;5071345;28;20172;-67
2020/12/01 03:29:31;;;;;;;14.20;11.77;;;5.70;48.10;;;;;;5071540;28;20180;-67
2020/12/01 03:31:57;;;;;;;15.10;12.37;;;5.70;48.40;;;;;;5071496;28;20192;-68
2020/12/01 03:34:22;;;;;;;15.57;13.60;;;5.50;48.70;;;;;;5071572;28;20178;-67
2020/12/01 03:36:48;;;;;;;15.90;13.17;;;5.60;48.80;;;;;;5071449;28;20262;-68
2020/12/01 03:39:13;;;;;;;18.47;13.47;;;5.60;49.40;;;;;;5071228;28;20255;-68
2020/12/01 03:41:39;;;;;;;15.70;12.93;;;5.50;49.10;;;;;;5071186;28;20193;-67
2020/12/01 03:44:04;;;;;;;14.17;11.70;;;5.70;50.40;;;;;;5071264;28;20253;-68
2020/12/01 03:46:30;;;;;;;17.43;13.90;;;5.80;49.10;;;;;;5071335;28;20175;-69
2020/12/01 03:48:58;;;;;;;15.30;13.43;;;5.60;48.80;;;;;;5071065;28;20183;-67
2020/12/01 03:51:27;;;;;;;13.90;12.00;;;5.70;50.40;;;;;;5071206;28;20191;-67
2020/12/01 03:53:53;;;;;;;13.67;12.00;;;5.70;48.80;;;;;;5071079;28;20769;-67
2020/12/01 03:56:20;;;;;;;14.40;12.37;;;5.50;48.80;;;;;;5071111;28;20417;-68
2020/12/01 03:58:45;;;;;;;14.23;12.57;;;5.30;50.40;;;;;;5071006;28;20970;-68
2020/12/01 04:01:11;;;;;;;14.10;11.17;;;5.30;51.10;;;;;;5071021;28;20433;-67
2020/12/01 04:03:37;;;;;;;12.93;11.53;;;5.50;51.00;;;;;;5070922;28;20178;-67
2020/12/01 04:06:03;;;;;;;15.03;12.07;;;5.40;50.60;;;;;;5071137;28;20538;-68
2020/12/01 04:08:29;;;;;;;17.27;13.27;;;5.40;50.50;;;;;;5070723;28;20246;-67
2020/12/01 04:10:54;;;;;;;15.07;12.33;;;5.60;50.20;;;;;;5070852;28;20524;-67
2020/12/01 04:13:20;;;;;;;13.97;12.50;;;5.60;50.10;;;;;;5070945;28;20221;-68
2020/12/01 04:15:46;;;;;;;14.47;12.73;;;5.70;50.70;;;;;;5070500;28;20176;-69
2020/12/01 04:18:12;;;;;;;14.00;11.30;;;5.60;50.30;;;;;;5071070;28;20182;-68
2020/12/01 04:20:37;;;;;;;15.30;11.37;;;5.50;50.20;;;;;;5070963;28;20492;-67
2020/12/01 04:23:03;;;;;;;15.10;13.50;;;5.50;50.30;;;;;;5070859;28;20224;-69
2020/12/01 04:25:29;;;;;;;16.50;13.13;;;5.60;50.40;;;;;;5070745;28;20231;-66
2020/12/01 04:27:56;;;;;;;14.40;12.10;;;5.80;49.60;;;;;;5070658;28;20436;-68
2020/12/01 04:30:23;;;;;;;13.60;11.97;;;5.70;49.70;;;;;;5070863;28;20664;-67
2020/12/01 04:32:50;;;;;;;13.77;12.07;;;5.90;49.50;;;;;;5070781;28;20427;-68
2020/12/01 04:35:15;;;;;;;13.50;11.07;;;6.00;49.50;;;;;;5070822;28;20415;-68
2020/12/01 04:37:41;;;;;;;14.20;12.17;;;6.00;49.00;;;;;;5070512;28;20505;-68
2020/12/01 04:40:09;;;;;;;13.43;12.00;;;5.80;49.20;;;;;;5070717;28;20373;-68
2020/12/01 04:42:43;;;;;;;15.60;13.90;;;6.00;49.60;;;;;;5070661;28;20516;-68
2020/12/01 04:45:12;;;;;;;15.33;12.10;;;6.10;49.10;;;;;;5070660;28;20955;-68
2020/12/01 04:48:05;;;;;;;15.50;13.60;;;6.00;47.90;;;;;;5070472;28;20410;-68
2020/12/01 04:50:38;;;;;;;17.70;13.93;;;6.00;49.10;;;;;;5070506;28;20428;-66
2020/12/01 04:53:06;;;;;;;18.73;14.53;;;6.00;48.00;;;;;;5070560;28;20459;-68
2020/12/01 04:55:54;;;;;;;16.83;15.13;;;6.00;48.30;;;;;;5070488;28;20409;-68
2020/12/01 04:58:57;;;;;;;17.13;13.93;;;6.10;48.60;;;;;;5070334;28;20413;-68
2020/12/01 05:01:41;;;;;;;18.77;13.53;;;6.30;48.80;;;;;;5070459;28;20439;-67
2020/12/01 05:04:23;;;;;;;14.77;11.40;;;6.30;47.70;;;;;;5070437;28;20461;-68
2020/12/01 05:07:14;;;;;;;13.50;12.20;;;6.30;47.30;;;;;;5070499;28;20961;-68
2020/12/01 05:09:43;;;;;;;16.23;12.73;;;6.30;47.70;;;;;;5070400;28;20437;-68
2020/12/01 05:12:15;;;;;;;13.70;12.30;;;6.50;48.30;;;;;;5070396;28;20936;-68
2020/12/01 05:14:52;;;;;;;12.27;11.07;;;6.60;48.40;;;;;;5070428;28;20409;-67
2020/12/01 05:17:47;;;;;;;15.20;11.70;;;6.70;48.30;;;;;;5070172;28;20419;-68
2020/12/01 05:20:13;;;;;;;13.87;12.23;;;6.80;48.10;;;;;;5068405;28;20437;-68
2020/12/01 05:22:46;;;;;;;15.40;13.80;;;6.90;47.40;;;;;;5068164;28;20523;-67
2020/12/01 05:25:23;;;;;;;12.20;11.03;;;7.00;47.50;;;;;;5068628;28;20213;-68
2020/12/01 05:27:49;;;;;;;14.77;12.37;;;7.00;47.60;;;;;;5071592;28;20416;-66
2020/12/01 05:30:21;;;;;;;17.20;14.10;;;7.00;47.20;;;;;;5073550;28;20856;-65
2020/12/01 05:33:00;;;;;;;16.30;14.70;;;7.00;46.60;;;;;;5092976;28;20428;-66
2020/12/01 05:35:29;;;;;;;14.17;11.30;;;7.00;46.90;;;;;;5094103;28;20440;-68
2020/12/01 05:38:18;;;;;;;12.10;10.70;;;7.10;46.80;;;;;;5093109;28;20463;-68
2020/12/01 05:40:59;;;;;;;13.90;11.53;;;7.10;46.50;;;;;;5082956;28;20518;-67
2020/12/01 05:43:36;;;;;;;11.50;10.30;;;7.10;46.90;;;;;;5093363;28;20446;-65
2020/12/01 05:46:19;;;;;;;11.80;10.60;;;6.90;45.50;;;;;;5093610;28;20419;-67
2020/12/01 05:49:06;;;;;;;13.03;11.30;;;7.00;46.60;;;;;;5093005;28;20900;-69
2020/12/01 05:51:41;;;;;;;13.17;11.60;;;7.20;44.90;;;;;;5093277;28;20419;-68
2020/12/01 05:54:15;;;;;;;12.43;11.27;;;7.20;45.90;;;;;;5093293;28;20459;-69
2020/12/01 05:56:47;;;;;;;11.67;10.57;;;7.20;45.20;;;;;;5093459;28;20903;-70
2020/12/01 05:59:16;;;;;;;14.10;11.70;;;7.10;45.10;;;;;;5093225;28;20890;-68
2020/12/01 06:01:44;;;;;;;12.10;10.60;;;6.90;45.50;;;;;;5093032;28;20427;-70
2020/12/01 06:04:28;;;;;;;14.00;11.80;;;6.80;46.00;;;;;;5093078;28;20459;-67
2020/12/01 06:06:59;;;;;;;11.03;9.10;;;6.80;45.40;;;;;;5093068;28;20396;-67
2020/12/01 06:09:53;;;;;;;13.13;10.80;;;6.80;46.00;;;;;;5092841;28;20405;-68
2020/12/01 06:12:51;;;;;;;12.60;10.43;;;6.70;46.50;;;;;;5093038;28;20436;-67
2020/12/01 06:15:19;;;;;;;13.47;11.77;;;6.80;46.00;;;;;;5092818;28;20524;-68
2020/12/01 06:18:05;;;;;;;13.63;11.77;;;6.90;46.20;;;;;;5092628;28;20403;-68
2020/12/01 06:20:43;;;;;;;13.53;10.50;;;6.90;46.20;;;;;;5092861;28;20401;-68
2020/12/01 06:23:40;;;;;;;13.37;11.20;;;6.80;45.60;;;;;;5092604;28;20439;-68
2020/12/01 06:26:38;;;;;;;19.63;11.57;;;6.90;46.60;;;;;;5092540;28;20409;-68
2020/12/01 06:29:46;;;;;;;12.43;10.63;;;7.00;47.10;;;;;;5092585;28;20396;-68
2020/12/01 06:32:30;;;;;;;13.47;9.60;;;7.00;45.80;;;;;;5092427;28;21038;-67
2020/12/01 06:35:30;;;;;;;18.10;13.70;;;6.80;47.40;;;;;;5092523;28;20429;-69
2020/12/01 06:38:10;;;;;;;11.30;10.10;;;7.10;48.30;;;;;;5091708;28;20770;-69
2020/12/01 06:40:49;;;;;;;14.63;11.00;;;7.00;46.80;;;;;;5092496;28;20496;-69
2020/12/01 06:43:25;;;;;;;14.30;12.43;;;7.00;46.80;;;;;;5092464;28;20413;-69
2020/12/01 06:45:55;;;;;;;11.73;10.40;;;6.90;47.10;;;;;;5092023;28;20484;-68
2020/12/01 06:48:47;;;;;;;12.93;10.67;;;6.90;48.20;;;;;;5092205;28;20737;-70
2020/12/01 06:51:13;;;;;;;14.33;11.13;;;7.10;48.60;;;;;;5083095;28;20991;-68
2020/12/01 06:53:40;;;;;;;16.93;12.80;;;7.40;60.90;;;;;;5091729;28;20460;-68
2020/12/01 06:56:06;;;;;;;14.70;11.90;;;10.60;80.60;;;;;;5092447;28;20413;-69
2020/12/01 06:58:41;;;;;;;14.43;11.27;;;11.00;48.30;;;;;;5092128;28;20805;-69
2020/12/01 07:01:24;;;;;;;11.97;10.40;;;11.70;46.90;;;;;;5091009;28;20197;-68
2020/12/01 07:04:24;;;;;;;12.17;10.50;;;11.90;46.20;;;;;;5092362;28;20433;-69
2020/12/01 07:07:02;;;;;;;14.93;10.77;;;12.60;40.20;;;;;;5090831;28;20922;-70
2020/12/01 07:09:45;;;;;;;14.20;10.00;;;11.50;35.70;;;;;;5091806;28;20416;-69
2020/12/01 07:12:13;;;;;;;11.13;10.03;;;11.30;40.40;;;;;;5091550;28;20996;-69
2020/12/01 07:14:44;;;;;;;10.17;9.10;;;11.50;42.90;;;;;;5091116;28;20404;-70
2020/12/01 07:17:15;;;;;;;12.23;9.77;;;11.90;38.30;;;;;;5091808;28;20409;-69
2020/12/01 07:19:52;;;;;;;13.33;11.27;;;11.40;37.00;;;;;;5091685;28;20561;-68
2020/12/01 07:22:20;;;;;;;12.00;10.70;;;10.60;34.60;;;;;;5091744;28;20455;-67
2020/12/01 07:25:10;;;;;;;10.80;9.80;;;9.60;37.20;;;;;;5091704;28;20498;-68
2020/12/01 07:27:54;;;;;;;11.20;9.67;;;8.70;40.50;;;;;;5090281;28;20421;-67
2020/12/01 07:30:26;;;;;;;11.23;8.93;;;8.30;41.20;;;;;;5090540;28;20446;-68
2020/12/01 07:32:58;;;;;;;10.70;9.70;;;8.10;42.50;;;;;;5091633;28;20424;-67
2020/12/01 07:35:32;;;;;;;12.67;10.40;;;8.00;43.30;;;;;;5091704;28;20404;-68
2020/12/01 07:38:19;;;;;;;11.43;10.23;;;7.90;43.40;;;;;;5091290;28;20509;-68
2020/12/01 07:40:52;;;;;;;10.70;9.60;;;7.60;43.50;;;;;;5090274;28;20420;-68
2020/12/01 07:43:21;;;;;;;12.30;9.60;;;7.30;44.60;;;;;;5083271;28;20424;-70
2020/12/01 07:45:48;;;;;;;14.53;10.03;;;7.50;45.70;;;;;;5091253;28;20449;-68
2020/12/01 07:48:18;;;;;;;10.90;9.57;;;7.50;45.70;;;;;;5091317;28;20397;-68
2020/12/01 07:50:43;;;;;;;13.13;9.10;;;7.40;44.90;;;;;;5090979;28;20492;-68
2020/12/01 07:53:20;;;;;;;10.63;9.63;;;7.30;45.40;;;;;;5091790;28;21165;-68
2020/12/01 07:55:55;;;;;;;10.37;9.37;;;7.20;45.10;;;;;;5091497;28;20170;-70
2020/12/01 07:58:26;;;;;;;14.53;10.60;;;7.20;47.60;;;;;;5091052;28;20849;-68
2020/12/01 08:00:58;;;;;;;12.93;11.57;;;7.40;47.40;;;;;;5091291;28;20463;-67
2020/12/01 08:03:31;;;;;;;13.30;11.50;;;7.50;46.30;;;;;;5091173;28;20405;-68
2020/12/01 08:06:03;;;;;;;13.70;11.47;;;7.50;46.20;;;;;;5091190;28;20456;-67
2020/12/01 08:08:35;;;;;;;13.07;11.50;;;7.60;46.80;;;;;;5091063;28;20502;-69
2020/12/01 08:11:03;;;;;;;12.50;10.37;;;7.50;46.20;;;;;;5091111;28;20520;-68
2020/12/01 08:13:32;;;;;;;13.77;12.37;;;7.50;46.00;;;;;;5091201;28;20411;-66
2020/12/01 08:15:59;;;;;;;12.80;10.53;;;7.50;47.50;;;;;;5091059;28;20435;-66
2020/12/01 08:18:27;;;;;;;9.73;8.93;;;7.60;46.00;;;;;;5090798;28;20413;-68
2020/12/01 08:20:54;;;;;;;11.80;10.60;;;7.60;45.70;;;;;;5090982;28;20831;-67
2020/12/01 08:23:24;;;;;;;10.80;9.70;;;7.60;45.60;;;;;;5090753;28;20439;-67
2020/12/01 08:26:27;;;;;;;8.53;7.73;;;7.40;45.70;;;;;;5090670;28;20459;-70
2020/12/01 08:29:18;;;;;;;6.53;6.00;;;7.10;45.10;;;;;;5090462;28;20448;-68
2020/12/01 08:31:56;;;;;;;7.33;6.60;;;7.40;43.80;;;;;;5090750;28;20434;-67
2020/12/01 08:34:38;;;;;;;6.93;6.23;;;7.50;42.40;;;;;;5089690;28;20549;-68
2020/12/01 08:37:22;;;;;;;18.87;13.20;;;7.40;43.30;;;;;;5090589;28;20412;-66
2020/12/01 08:40:21;;;;;;;19.33;15.47;;;7.10;44.50;;;;;;5090449;28;20484;-67
2020/12/01 08:43:11;;;;;;;19.87;14.67;;;7.10;46.50;;;;;;5090681;28;20467;-67
2020/12/01 08:45:46;;;;;;;17.27;14.97;;;7.20;46.40;;;;;;5088969;28;21060;-67
2020/12/01 08:48:38;;;;;;;18.00;15.30;;;7.10;47.50;;;;;;5090526;28;20917;-67
2020/12/01 08:51:24;;;;;;;15.93;13.93;;;7.30;47.70;;;;;;5090566;28;20436;-66
2020/12/01 08:53:52;;;;;;;17.30;14.80;;;7.20;47.70;;;;;;5090043;28;20673;-67
2020/12/01 08:56:28;;;;;;;20.80;15.47;;;7.40;47.30;;;;;;5091391;28;20440;-66
2020/12/01 08:58:54;;;;;;;20.60;16.77;;;7.40;46.50;;;;;;5090404;28;20416;-67
2020/12/01 09:01:20;;;;;;;16.13;14.43;;;7.30;45.30;;;;;;5090508;28;20472;-67
2020/12/01 09:03:58;;;;;;;18.00;16.20;;;7.40;45.90;;;;;;5094875;28;20412;-67
2020/12/01 09:06:34;;;;;;;19.90;15.53;;;7.30;46.50;;;;;;5094558;28;20400;-66
2020/12/01 09:09:14;;;;;;;22.43;17.60;;;7.40;46.40;;;;;;5094494;28;20400;-67
2020/12/01 09:15:02;;;;;;;17.73;15.63;;;7.40;45.40;;;;;;5051801;28;20421;-66
2020/12/01 09:17:38;;;;;;;17.30;15.03;;;7.50;46.50;;;;;;5090816;28;20412;-67
2020/12/01 09:22:47;;;;;;;17.33;14.23;;;7.50;46.40;;;;;;5094090;28;20420;-68
2020/12/01 09:25:21;;;;;;;19.27;13.27;;;7.50;46.40;;;;;;5093925;28;20470;-68
2020/12/01 09:27:48;;;;;;;17.60;14.07;;;7.50;46.20;;;;;;5094075;28;20175;-67
2020/12/01 09:30:34;;;;;;;16.33;14.10;;;7.60;45.70;;;;;;5094167;28;20400;-68
2020/12/01 09:33:01;;;;;;;16.37;14.77;;;7.50;46.30;;;;;;5094143;28;20404;-69
2020/12/01 09:35:27;;;;;;;15.20;13.53;;;7.50;46.00;;;;;;5093975;28;20421;-67
2020/12/01 09:37:53;;;;;;;14.27;12.77;;;7.60;46.10;;;;;;5093586;28;20455;-67
2020/12/01 09:40:19;;;;;;;14.20;12.70;;;7.50;45.50;;;;;;5093908;28;20911;-68
2020/12/01 09:42:48;;;;;;;20.33;14.80;;;7.50;46.70;;;;;;5093837;28;20667;-67
2020/12/01 09:50:27;;;;;;;15.00;11.87;;;7.50;46.50;;;;;;5093655;28;20412;-67
2020/12/01 09:53:09;;;;;;;12.67;11.37;;;7.50;45.10;;;;;;5093382;28;20580;-67
2020/12/01 10:35:33;;;;;;;8.93;8.03;;;7.60;46.10;;;;;;5072448;28;20508;-67
2020/12/01 10:38:02;;;;;;;8.57;7.77;;;7.70;45.60;;;;;;5072556;28;20509;-68
2020/12/01 10:40:28;;;;;;;8.03;7.43;;;7.60;44.70;;;;;;5072490;28;20540;-68
2020/12/01 10:42:55;;;;;;;8.37;7.60;;;7.70;44.70;;;;;;5080508;28;20420;-69
2020/12/01 10:45:22;;;;;;;6.87;6.27;;;7.60;45.50;;;;;;5083373;28;20448;-68
2020/12/01 10:47:48;;;;;;;7.20;6.50;;;7.70;44.30;;;;;;5078107;28;20901;-69
2020/12/01 10:50:15;;;;;;;7.60;5.13;;;7.80;43.70;;;;;;5072318;28;20413;-70
2020/12/01 10:52:41;;;;;;;6.10;5.60;;;7.80;43.10;;;;;;5078642;28;20195;-70
2020/12/01 10:55:07;;;;;;;7.53;6.40;;;7.90;42.40;;;;;;5082604;28;20516;-69
2020/12/01 10:57:35;;;;;;;6.73;6.00;;;7.70;43.70;;;;;;5079988;28;20178;-69
2020/12/01 11:00:05;;;;;;;6.63;6.00;;;7.50;43.90;;;;;;5080658;28;20775;-68
2020/12/01 11:02:31;;;;;;;6.97;6.27;;;7.30;44.70;;;;;;5081892;28;20436;-68
2020/12/01 11:04:56;;;;;;;6.90;6.30;;;7.40;45.80;;;;;;5079127;28;20547;-69
2020/12/01 11:07:22;;;;;;;6.30;5.70;;;7.30;45.40;;;;;;5080292;28;20170;-69
2020/12/01 11:09:47;;;;;;;7.47;6.77;;;7.50;44.70;;;;;;5081157;28;20163;-70
2020/12/01 11:12:12;;;;;;;6.47;5.87;;;7.40;45.10;;;;;;5081202;28;20707;-68
2020/12/01 11:14:38;;;;;;;6.77;6.00;;;7.10;45.50;;;;;;5088058;28;20182;-68
2020/12/01 11:17:04;;;;;;;6.73;6.03;;;7.00;45.70;;;;;;5080425;28;20264;-66
2020/12/01 11:19:29;;;;;;;8.07;6.37;;;7.20;45.90;;;;;;5080023;28;20175;-67
2020/12/01 11:21:55;;;;;;;7.20;6.50;;;7.40;45.10;;;;;;5079887;28;20210;-67
2020/12/01 11:24:20;;;;;;;6.40;5.90;;;7.60;44.60;;;;;;5078681;28;20210;-69
2020/12/01 11:26:46;;;;;;;7.30;6.53;;;7.60;43.80;;;;;;5079357;28;20629;-67
2020/12/01 11:29:11;;;;;;;7.10;6.50;;;7.60;44.60;;;;;;5081567;28;20167;-69
2020/12/01 11:31:41;;;;;;;7.10;6.40;;;7.20;45.60;;;;;;5078812;28;20677;-68
2020/12/01 11:34:09;;;;;;;6.40;5.90;;;7.10;44.50;;;;;;5074110;28;20174;-67
2020/12/01 11:36:36;;;;;;;6.93;6.23;;;6.80;45.80;;;;;;5084996;28;20441;-68
2020/12/01 11:39:11;;;;;;;7.57;6.73;;;6.50;48.00;;;;;;5091585;28;20944;-67
2020/12/01 11:41:37;;;;;;;7.30;6.60;;;6.70;47.90;;;;;;5091943;28;20423;-67
2020/12/01 11:44:03;;;;;;;5.90;5.50;;;7.00;46.70;;;;;;5091871;28;20485;-68
2020/12/01 11:46:29;;;;;;;6.40;5.80;;;7.00;47.40;;;;;;5091628;28;20741;-67
2020/12/01 11:48:55;;;;;;;7.10;6.50;;;7.10;46.50;;;;;;5091163;28;20446;-67
2020/12/01 11:51:20;;;;;;;7.30;5.90;;;7.10;46.30;;;;;;5091400;28;20427;-66
2020/12/01 11:53:46;;;;;;;6.00;5.40;;;7.10;45.90;;;;;;5091459;28;20218;-66
2020/12/01 11:56:13;;;;;;;6.10;5.60;;;7.20;46.60;;;;;;5091330;28;20178;-68
2020/12/01 11:58:38;;;;;;;6.10;5.60;;;7.20;45.60;;;;;;5091176;28;20261;-67
2020/12/01 12:01:04;;;;;;;7.57;6.13;;;7.00;46.20;;;;;;5091144;28;20606;-67
2020/12/01 12:03:29;;;;;;;6.80;5.63;;;7.10;46.60;;;;;;5090909;28;20245;-68
2020/12/01 12:05:55;;;;;;;6.23;5.70;;;7.00;47.00;;;;;;5090918;28;20661;-68
2020/12/01 12:08:21;;;;;;;7.67;6.10;;;7.00;46.30;;;;;;5091016;28;20576;-68
2020/12/01 12:10:46;;;;;;;9.00;6.30;;;6.90;46.70;;;;;;5091235;28;20173;-68
2020/12/01 12:13:12;;;;;;;7.87;7.20;;;6.80;48.20;;;;;;5089852;28;20186;-69
2020/12/01 12:15:37;;;;;;;7.13;5.90;;;6.90;48.00;;;;;;5091355;28;20177;-69
2020/12/01 12:18:03;;;;;;;8.30;6.37;;;6.70;48.20;;;;;;5091083;28;20536;-70
2020/12/01 12:20:29;;;;;;;8.10;6.10;;;6.90;49.90;;;;;;5090773;28;20213;-69
2020/12/01 12:22:54;;;;;;;6.93;6.40;;;6.90;52.80;;;;;;5090671;28;20420;-69
2020/12/01 12:25:20;;;;;;;7.07;6.53;;;7.10;50.80;;;;;;5090624;28;20225;-69
2020/12/01 12:27:45;;;;;;;5.73;5.33;;;7.10;51.80;;;;;;5090806;28;20166;-68
2020/12/01 12:30:11;;;;;;;6.87;6.17;;;7.40;54.50;;;;;;5089809;28;20180;-68
2020/12/01 12:32:37;;;;;;;5.93;5.33;;;7.50;51.50;;;;;;5090723;28;20193;-70
2020/12/01 12:35:04;;;;;;;6.57;6.00;;;7.50;51.90;;;;;;5090807;28;20166;-68
2020/12/01 12:37:29;;;;;;;7.53;6.80;;;7.90;55.00;;;;;;5090150;28;20209;-69
2020/12/01 12:39:55;;;;;;;7.03;6.47;;;8.20;46.60;;;;;;5090623;28;20445;-67
2020/12/01 12:42:21;;;;;;;7.37;6.67;;;8.10;48.70;;;;;;5090871;28;20191;-69
2020/12/01 12:44:46;;;;;;;8.23;7.33;;;7.90;45.60;;;;;;5091035;28;20230;-67
2020/12/01 12:47:12;;;;;;;8.10;7.30;;;7.70;45.90;;;;;;5090371;28;20405;-70
2020/12/01 12:49:37;;;;;;;7.90;7.10;;;7.40;47.20;;;;;;5090594;28;20169;-69
2020/12/01 12:52:03;;;;;;;7.70;6.90;;;7.40;47.00;;;;;;5090617;28;20672;-66
2020/12/01 12:54:28;;;;;;;7.30;6.50;;;7.40;46.50;;;;;;5090543;28;20269;-68
2020/12/01 12:56:54;;;;;;;8.13;7.33;;;7.30;46.50;;;;;;5087227;28;20565;-69
2020/12/01 12:59:19;;;;;;;7.70;7.00;;;7.00;47.20;;;;;;5079986;28;20184;-68
2020/12/01 13:01:45;;;;;;;7.70;7.10;;;7.20;47.80;;;;;;5084678;28;20270;-69
2020/12/01 13:04:10;;;;;;;8.63;7.93;;;7.20;47.30;;;;;;5090434;28;20174;-70
2020/12/01 13:06:36;;;;;;;8.63;7.73;;;7.10;47.30;;;;;;5090586;28;20572;-69
2020/12/01 13:09:01;;;;;;;8.33;7.50;;;7.10;48.50;;;;;;5090164;28;20173;-69
2020/12/01 13:11:27;;;;;;;9.60;7.50;;;7.40;48.00;;;;;;5090376;28;20190;-68
2020/12/01 13:13:52;;;;;;;7.90;7.20;;;7.50;46.80;;;;;;5090126;28;20658;-71
2020/12/01 13:16:18;;;;;;;8.20;7.27;;;7.50;46.30;;;;;;5089961;28;20262;-69
2020/12/01 13:18:45;;;;;;;7.67;6.93;;;7.50;45.60;;;;;;5090267;28;20170;-67
2020/12/01 13:21:11;;;;;;;7.13;6.50;;;7.00;47.60;;;;;;5079276;28;20512;-70
2020/12/01 13:23:38;;;;;;;8.57;7.87;;;7.10;48.30;;;;;;5089378;28;21005;-68
2020/12/01 13:26:04;;;;;;;7.10;6.60;;;7.10;48.10;;;;;;5090196;28;20217;-68
2020/12/01 13:28:29;;;;;;;7.97;7.27;;;7.10;47.10;;;;;;5089620;28;20422;-68
2020/12/01 13:30:55;;;;;;;7.80;7.10;;;7.30;47.10;;;;;;5090226;28;20187;-69
2020/12/01 13:33:21;;;;;;;7.57;6.83;;;7.40;45.40;;;;;;5090292;28;20257;-68
2020/12/01 13:35:46;;;;;;;7.80;7.00;;;7.10;45.50;;;;;;5090414;28;20171;-68
2020/12/01 13:38:12;;;;;;;7.53;6.87;;;7.10;48.30;;;;;;5090148;28;20652;-69
2020/12/01 13:40:38;;;;;;;8.00;7.30;;;7.20;47.20;;;;;;5090082;28;20209;-69
2020/12/01 13:43:03;;;;;;;8.50;7.63;;;7.00;46.20;;;;;;5090613;28;20470;-69
2020/12/01 13:45:29;;;;;;;8.10;7.50;;;7.20;46.30;;;;;;5090122;28;20194;-68
2020/12/01 13:47:56;;;;;;;8.60;7.00;;;7.20;46.20;;;;;;5090416;28;20163;-67
2020/12/01 13:50:24;;;;;;;7.53;6.90;;;7.20;46.10;;;;;;5093583;28;20170;-68